Flight Sim Network - MMML Airport Info

    MMML (General Rodolfo Sánchez Taboada International Airport)  Login to use Map Selector
   

  ALLIANCE AIRCRAFT AT THIS AIRPORT
Tail Number Aircraft ModelFlightsRunwayRangeCapacityPaxSale
N4520MAero Design AC500C 01375ft856nm919Kg6Yes
  RUNWAY INFORMATION    |    Airport Elevation : 74ft    |    LAT : 32.6305999756  /  LON : -115.241996765
Runway Number 10 / 28 Runway Width 148' Runway Length 8530'
Lighted Runway Yes Runway StatusOpen Runway Surface Concrete
  CLOSE ALTERNATE AIRPORTS
ICAODistanceAirport NameLongest RWRW SurfaceMAP
L0413NMHoltville6000FTConcrete
KCXL14NMCalexico International Airport4679FTAsphalt
9L417NMDouthitt Strip3199FTGrass
KIPL21NMImperial County Airport5311FTAsphalt
KNJK25NMEl Centro Naf Airport9503FTAsphalt
MM2O25NMSan Luis Rio Colorado4928FTAsphalt
KBWC26NMBrawley Municipal Airport4443FTAsphalt
54AZ29NMSomerton Airport3700FTGrass
KYUM32NMYuma MCAS/Yuma Intl34413FTConcrete
KCLR33NMCliff Hatfield Memorial Airport3440FTAsphalt
  AIRPORT WEATHER
100°F | 38°C
Temperature
33%
Humidity
29" | 1009mb
Pressure
10sm
Visibility
VFR
Flight Rules
SKC
Initial Clouds
FAIR
Conditions
Wind Info
7/23/24 17:40Z
Updated

MMML 231740Z 17008KT 10SM SKC 38/19 A2980 RMK SLP095 52003 907
  AIRPORT FREQUENCIES
NameFrequency
ATIS127.600
GROUND118.200
TOWER118.200

Powered by Virtual Airlines Manager